Time;durP1;ratioP1;P1;durP2;ratioP2;P2;SDS_P1;SDS_P2;PMS_P1;PMS_P2;Temp;Humidity;BMP_temperature;BMP_pressure;BME280_temperature;BME280_humidity;BME280_pressure;Samples;Min_cycle;Max_cycle;Signal;HPM_P1;HPM_P2
2021/12/13 00:01:02;;;;;;;49.75;20.02;;;12.40;87.90;;;;;;4956453;28;90594;-69
2021/12/13 00:03:52;;;;;;;50.35;20.38;;;12.40;87.90;;;;;;4956270;28;90134;-69
2021/12/13 00:06:26;;;;;;;44.25;19.30;;;12.30;87.80;;;;;;4957551;28;88762;-70
2021/12/13 00:08:57;;;;;;;41.25;18.33;;;12.40;87.70;;;;;;4956298;28;88650;-70
2021/12/13 00:11:28;;;;;;;50.25;20.70;;;12.30;87.70;;;;;;4956634;28;89500;-69
2021/12/13 00:14:11;;;;;;;55.40;20.67;;;12.30;87.70;;;;;;4957690;28;88674;-70
2021/12/13 00:16:44;;;;;;;44.15;19.35;;;12.30;87.90;;;;;;4957772;28;88467;-69
2021/12/13 00:19:16;;;;;;;55.88;20.00;;;12.30;87.90;;;;;;4957405;28;88507;-70
2021/12/13 00:21:47;;;;;;;59.38;21.98;;;12.30;87.70;;;;;;4957512;28;89270;-69
2021/12/13 00:24:22;;;;;;;53.22;21.50;;;12.30;88.00;;;;;;4957610;28;89454;-69
2021/12/13 00:26:52;;;;;;;60.85;21.90;;;12.30;87.90;;;;;;4955849;28;91068;-69
2021/12/13 00:29:26;;;;;;;66.32;22.92;;;12.30;87.80;;;;;;4956139;28;89795;-69
2021/12/13 00:32:10;;;;;;;69.07;23.92;;;12.30;87.90;;;;;;4957376;28;89147;-69
2021/12/13 00:34:44;;;;;;;56.05;22.48;;;12.40;87.90;;;;;;4957541;28;88861;-72
2021/12/13 00:37:24;;;;;;;69.95;24.17;;;12.30;87.90;;;;;;4957591;28;88554;-73
2021/12/13 00:39:56;;;;;;;76.60;25.70;;;12.30;88.00;;;;;;4957409;28;88690;-73
2021/12/13 00:42:29;;;;;;;61.08;23.17;;;12.30;88.00;;;;;;4957590;28;89218;-73
2021/12/13 00:45:00;;;;;;;71.78;24.35;;;12.30;88.30;;;;;;4955909;28;89038;-73
2021/12/13 00:47:32;;;;;;;77.78;24.40;;;12.30;88.20;;;;;;4957600;28;88974;-73
2021/12/13 00:50:31;;;;;;;62.42;23.23;;;12.30;88.20;;;;;;4955357;28;89630;-73
2021/12/13 00:52:59;;;;;;;72.38;24.10;;;12.40;88.10;;;;;;4957117;28;89244;-73
2021/12/13 00:55:31;;;;;;;57.05;22.73;;;12.30;88.10;;;;;;4956981;28;94578;-73
2021/12/13 00:58:08;;;;;;;60.47;22.67;;;12.30;88.00;;;;;;4956889;28;88505;-73
2021/12/13 01:00:49;;;;;;;62.60;22.00;;;12.30;88.10;;;;;;4957107;28;89348;-72
2021/12/13 01:03:33;;;;;;;58.55;22.75;;;12.30;87.90;;;;;;4957118;28;89884;-73
2021/12/13 01:06:31;;;;;;;62.83;22.92;;;12.30;88.00;;;;;;4955774;28;88665;-72
2021/12/13 01:09:34;;;;;;;67.95;23.95;;;12.30;88.00;;;;;;4956935;28;88499;-72
2021/12/13 01:12:06;;;;;;;59.95;22.83;;;12.40;87.90;;;;;;4956686;28;88653;-72
2021/12/13 01:14:42;;;;;;;64.97;24.00;;;12.30;88.00;;;;;;4955381;28;92067;-73
2021/12/13 01:17:22;;;;;;;63.67;24.25;;;12.30;88.10;;;;;;4955358;28;88847;-73
2021/12/13 01:20:00;;;;;;;61.58;23.65;;;12.30;88.10;;;;;;4955920;28;91997;-72
2021/12/13 01:22:45;;;;;;;60.55;23.50;;;12.40;88.10;;;;;;4957008;28;88931;-72
2021/12/13 01:28:10;;;;;;;73.03;24.50;;;12.40;87.90;;;;;;4958940;28;88897;-72
2021/12/13 01:30:42;;;;;;;63.88;24.27;;;12.40;88.00;;;;;;4960027;28;88455;-73
2021/12/13 01:33:12;;;;;;;67.00;24.20;;;12.30;87.70;;;;;;4942235;28;89768;-72
2021/12/13 01:35:48;;;;;;;67.18;24.60;;;12.40;87.90;;;;;;4960203;28;89837;-72
2021/12/13 01:38:32;;;;;;;60.83;23.83;;;12.40;87.80;;;;;;4959990;28;88950;-72
2021/12/13 01:41:00;;;;;;;;;;;12.40;87.90;;;;;;4960325;28;89124;-72
2021/12/13 01:43:31;;;;;;;58.70;21.55;;;12.30;87.70;;;;;;4961342;28;89281;-72
2021/12/13 01:45:59;;;;;;;59.17;22.17;;;12.30;88.10;;;;;;4959697;28;89202;-72
2021/12/13 01:48:36;;;;;;;46.58;20.13;;;12.30;88.00;;;;;;4959501;28;90947;-72
2021/12/13 01:51:10;;;;;;;49.08;21.15;;;12.40;88.10;;;;;;4959670;28;88579;-72
2021/12/13 01:53:39;;;;;;;57.13;22.42;;;12.40;88.00;;;;;;4958440;28;90041;-72
2021/12/13 01:56:34;;;;;;;49.25;21.08;;;12.30;87.80;;;;;;4958088;28;89276;-72
2021/12/13 01:59:04;;;;;;;48.40;21.55;;;12.40;87.90;;;;;;4959380;28;89058;-72
2021/12/13 02:01:32;;;;;;;51.78;20.05;;;12.30;88.00;;;;;;4959880;28;88548;-72
2021/12/13 02:04:03;;;;;;;50.28;20.05;;;12.40;88.10;;;;;;4959272;28;88581;-72
2021/12/13 02:06:39;;;;;;;40.05;17.60;;;12.40;87.90;;;;;;4941992;28;90385;-72
2021/12/13 02:09:12;;;;;;;49.42;18.30;;;12.40;88.20;;;;;;4958836;28;88635;-72
2021/12/13 02:11:40;;;;;;;38.33;19.08;;;12.40;87.90;;;;;;4958279;28;89529;-72
2021/12/13 02:14:15;;;;;;;39.75;17.95;;;12.40;87.80;;;;;;4957604;28;89821;-72
2021/12/13 02:17:23;;;;;;;34.08;17.05;;;12.40;87.80;;;;;;4959585;28;89300;-72
2021/12/13 02:20:00;;;;;;;33.58;16.83;;;12.40;87.80;;;;;;4959411;28;88897;-73
2021/12/13 02:22:35;;;;;;;37.58;17.23;;;12.40;88.00;;;;;;4959345;28;88425;-72
2021/12/13 02:25:08;;;;;;;33.35;15.27;;;12.40;87.90;;;;;;4959309;28;88937;-72
2021/12/13 02:27:38;;;;;;;23.77;13.35;;;12.40;87.90;;;;;;4959615;28;88386;-72
2021/12/13 02:30:32;;;;;;;25.13;14.55;;;12.30;87.80;;;;;;4959065;28;89457;-72
2021/12/13 02:33:00;;;;;;;22.65;12.85;;;12.40;87.80;;;;;;4958011;28;88994;-72
2021/12/13 02:35:31;;;;;;;28.13;14.60;;;12.30;87.80;;;;;;4958826;28;88678;-72
2021/12/13 02:37:59;;;;;;;25.02;14.00;;;12.40;87.80;;;;;;4957666;28;92792;-72
2021/12/13 02:40:27;;;;;;;22.60;13.70;;;12.40;87.80;;;;;;4959000;28;89266;-72
2021/12/13 02:42:54;;;;;;;25.60;13.38;;;12.30;87.80;;;;;;4958898;28;90007;-72
2021/12/13 02:45:29;;;;;;;26.42;13.43;;;12.40;87.90;;;;;;4958852;28;88729;-73
2021/12/13 02:48:04;;;;;;;22.02;13.27;;;12.40;87.80;;;;;;4957853;28;89327;-72
2021/12/13 02:50:43;;;;;;;24.73;14.35;;;12.40;87.70;;;;;;4957417;28;92079;-72
2021/12/13 02:53:13;;;;;;;21.35;14.43;;;12.40;87.70;;;;;;4958987;28;88588;-72
2021/12/13 02:55:40;;;;;;;25.27;13.90;;;12.40;87.60;;;;;;4959008;28;88668;-72
2021/12/13 02:58:12;;;;;;;25.77;15.77;;;12.30;87.70;;;;;;4957322;28;91151;-72
2021/12/13 03:01:08;;;;;;;25.90;16.35;;;12.40;87.50;;;;;;4958673;28;88843;-72
2021/12/13 03:03:41;;;;;;;24.13;15.43;;;12.40;88.10;;;;;;4957268;28;89587;-72
2021/12/13 03:06:10;;;;;;;28.07;17.10;;;12.40;87.50;;;;;;4955570;28;90071;-72
2021/12/13 03:08:45;;;;;;;29.00;16.98;;;12.30;87.50;;;;;;4958622;28;89227;-72
2021/12/13 03:11:29;;;;;;;30.58;18.80;;;12.40;87.40;;;;;;4958313;28;88852;-72
2021/12/13 03:14:12;;;;;;;34.45;17.85;;;12.40;87.40;;;;;;4958522;28;88516;-72
2021/12/13 03:17:04;;;;;;;31.33;18.02;;;12.40;87.40;;;;;;4958720;28;88483;-72
2021/12/13 03:19:47;;;;;;;30.92;17.45;;;12.40;87.50;;;;;;4958563;28;89140;-72
2021/12/13 03:22:21;;;;;;;31.38;17.40;;;12.30;87.40;;;;;;4957915;28;95392;-72
2021/12/13 03:25:15;;;;;;;29.40;17.60;;;12.30;87.50;;;;;;4957023;28;88478;-72
2021/12/13 03:27:42;;;;;;;;;;;12.30;87.30;;;;;;4958749;28;89387;-69
2021/12/13 03:30:17;;;;;;;32.08;16.67;;;12.20;87.20;;;;;;4958428;28;91986;-69
2021/12/13 03:32:56;;;;;;;33.10;18.23;;;12.30;87.40;;;;;;4958823;28;88393;-70
2021/12/13 03:35:36;;;;;;;33.00;17.77;;;12.30;87.20;;;;;;4958093;28;88884;-72
2021/12/13 03:38:10;;;;;;;30.10;17.20;;;12.30;87.30;;;;;;4958346;28;88723;-69
2021/12/13 03:40:37;;;;;;;26.02;15.55;;;12.30;87.20;;;;;;4958020;28;97384;-69
2021/12/13 03:43:11;;;;;;;32.92;17.40;;;12.20;87.10;;;;;;4956614;28;90118;-69
2021/12/13 03:45:49;;;;;;;29.40;16.60;;;12.30;87.10;;;;;;4958422;28;88675;-72
2021/12/13 03:48:20;;;;;;;29.20;17.15;;;12.30;87.00;;;;;;4958020;28;88552;-72
2021/12/13 03:50:50;;;;;;;28.52;15.80;;;12.30;87.00;;;;;;4957600;28;89365;-72
2021/12/13 03:53:22;;;;;;;32.53;17.67;;;12.30;87.00;;;;;;4957776;28;88750;-72
2021/12/13 03:55:56;;;;;;;32.95;17.27;;;12.20;86.90;;;;;;4958102;28;88459;-72
2021/12/13 03:58:24;;;;;;;33.83;17.50;;;12.30;87.00;;;;;;4957899;28;88575;-72
2021/12/13 04:01:01;;;;;;;29.27;16.80;;;12.20;86.70;;;;;;4951681;28;89241;-69
2021/12/13 04:03:29;;;;;;;33.67;16.42;;;12.30;86.70;;;;;;4936758;28;89937;-69
2021/12/13 04:05:57;;;;;;;27.33;15.55;;;12.20;86.70;;;;;;4938128;28;92603;-69
2021/12/13 04:08:25;;;;;;;32.72;17.55;;;12.20;86.60;;;;;;4937071;28;88931;-69
2021/12/13 04:11:04;;;;;;;30.88;16.70;;;12.20;86.50;;;;;;4920988;28;90493;-69
2021/12/13 04:13:39;;;;;;;29.85;16.95;;;12.20;86.60;;;;;;4937869;28;88919;-69
2021/12/13 04:16:14;;;;;;;31.95;17.15;;;12.20;86.50;;;;;;4936925;28;88913;-69
2021/12/13 04:21:25;;;;;;;27.00;15.60;;;12.20;86.30;;;;;;4937801;28;89312;-72
2021/12/13 04:23:57;;;;;;;28.98;15.82;;;12.10;86.40;;;;;;4938207;28;88533;-72
2021/12/13 04:26:26;;;;;;;22.20;13.52;;;12.20;86.50;;;;;;4937941;28;90696;-72
2021/12/13 04:28:56;;;;;;;25.67;14.30;;;12.10;86.30;;;;;;4936616;28;89764;-72
2021/12/13 04:31:30;;;;;;;23.85;13.82;;;12.10;86.20;;;;;;4936636;28;90851;-73
2021/12/13 04:34:02;;;;;;;27.33;14.40;;;12.20;86.20;;;;;;4937005;28;88822;-72
2021/12/13 04:36:34;;;;;;;22.20;13.52;;;12.10;86.10;;;;;;4937988;28;91128;-73
2021/12/13 04:39:07;;;;;;;21.95;13.30;;;12.10;86.10;;;;;;4937893;28;88564;-73
2021/12/13 04:41:49;;;;;;;26.77;13.17;;;12.00;86.10;;;;;;4937941;28;91413;-70
2021/12/13 04:44:31;;;;;;;20.13;12.07;;;12.00;86.20;;;;;;4937560;28;88811;-70
2021/12/13 04:47:08;;;;;;;20.20;11.48;;;12.00;86.10;;;;;;4936413;28;88497;-70
2021/12/13 04:49:38;;;;;;;17.20;10.95;;;12.00;86.20;;;;;;4937331;28;88748;-72
2021/12/13 04:52:10;;;;;;;22.23;12.15;;;11.90;86.10;;;;;;4936620;28;89096;-71
2021/12/13 04:54:42;;;;;;;20.33;11.48;;;11.90;86.00;;;;;;4952867;28;90091;-70
2021/12/13 04:57:10;;;;;;;22.42;12.80;;;11.90;85.90;;;;;;4955794;28;89515;-70
2021/12/13 04:59:37;;;;;;;19.48;11.35;;;11.80;86.00;;;;;;4956979;28;88671;-70
2021/12/13 05:02:09;;;;;;;19.45;11.55;;;11.70;86.20;;;;;;4958123;28;99900;-69
2021/12/13 05:04:36;;;;;;;17.27;11.95;;;11.70;86.30;;;;;;4959259;28;88714;-70
2021/12/13 05:07:05;;;;;;;21.35;12.02;;;11.70;86.40;;;;;;4960458;28;88439;-72
2021/12/13 05:09:34;;;;;;;21.15;11.55;;;11.70;86.40;;;;;;4959956;28;88725;-73
2021/12/13 05:12:01;;;;;;;20.30;12.38;;;11.70;86.30;;;;;;4960495;28;89206;-70
2021/12/13 05:14:35;;;;;;;24.70;12.73;;;11.70;86.20;;;;;;4958428;28;93809;-70
2021/12/13 05:17:12;;;;;;;22.67;12.73;;;11.70;86.20;;;;;;4959379;28;88500;-69
2021/12/13 05:19:57;;;;;;;20.35;12.57;;;11.70;86.20;;;;;;4959836;28;88607;-70
2021/12/13 05:22:24;;;;;;;22.55;13.27;;;11.70;86.20;;;;;;4960069;28;91261;-71
2021/12/13 05:24:59;;;;;;;23.50;12.13;;;11.60;86.20;;;;;;4942723;28;90104;-72
2021/12/13 05:27:37;;;;;;;24.73;12.77;;;11.60;86.10;;;;;;4959113;28;88499;-70
2021/12/13 05:30:20;;;;;;;20.73;12.07;;;11.60;86.20;;;;;;4959006;28;89982;-69
2021/12/13 05:32:52;;;;;;;20.35;11.77;;;11.60;86.20;;;;;;4960171;28;89643;-70
2021/12/13 05:35:28;;;;;;;21.33;12.30;;;11.60;86.30;;;;;;4959750;28;88913;-70
2021/12/13 05:37:58;;;;;;;19.52;12.35;;;11.60;86.40;;;;;;4960075;28;94244;-69
2021/12/13 05:40:33;;;;;;;20.75;11.40;;;11.50;86.40;;;;;;4958422;28;89839;-70
2021/12/13 05:43:26;;;;;;;21.27;12.20;;;11.60;86.50;;;;;;4958548;28;90375;-69
2021/12/13 05:46:01;;;;;;;20.00;11.65;;;11.60;86.40;;;;;;4942389;28;89908;-69
2021/12/13 05:48:34;;;;;;;19.77;11.98;;;11.60;86.30;;;;;;4958388;28;88472;-69
2021/12/13 05:51:05;;;;;;;20.67;13.07;;;11.60;86.30;;;;;;4958853;28;88497;-70
2021/12/13 05:53:44;;;;;;;18.13;10.88;;;11.60;86.20;;;;;;4960179;28;89278;-69
2021/12/13 05:56:15;;;;;;;27.45;11.90;;;11.60;86.00;;;;;;4958630;28;88864;-72
2021/12/13 05:58:45;;;;;;;19.33;12.60;;;11.60;86.00;;;;;;4959507;28;89286;-72
2021/12/13 06:01:29;;;;;;;20.42;13.02;;;11.60;86.00;;;;;;4949445;28;91228;-72
2021/12/13 06:04:12;;;;;;;20.27;11.80;;;11.70;85.90;;;;;;4940232;28;89046;-72
2021/12/13 06:06:54;;;;;;;16.73;10.80;;;11.60;85.90;;;;;;4938418;28;89897;-69
2021/12/13 06:09:40;;;;;;;20.48;10.73;;;11.60;85.90;;;;;;4940419;28;88768;-72
2021/12/13 06:12:29;;;;;;;17.80;11.48;;;11.60;85.70;;;;;;4939866;28;88805;-72
2021/12/13 06:15:01;;;;;;;21.50;11.55;;;11.60;85.90;;;;;;4939331;28;94448;-72
2021/12/13 06:17:34;;;;;;;21.45;10.55;;;11.60;85.90;;;;;;4939848;28;88512;-70
2021/12/13 06:20:19;;;;;;;15.20;10.20;;;11.60;86.00;;;;;;4938014;28;89481;-69
2021/12/13 06:22:47;;;;;;;17.02;9.80;;;11.60;85.50;;;;;;4938388;28;94049;-69
2021/12/13 06:25:23;;;;;;;14.93;9.65;;;11.50;85.70;;;;;;4938951;28;89695;-69
2021/12/13 06:27:53;;;;;;;16.83;9.88;;;11.60;85.60;;;;;;4940103;28;88708;-70
2021/12/13 06:30:24;;;;;;;17.33;9.65;;;11.50;85.50;;;;;;4940635;28;88008;-69
2021/12/13 06:32:57;;;;;;;14.48;9.32;;;11.50;85.50;;;;;;4940339;28;88723;-69
2021/12/13 06:35:30;;;;;;;17.55;9.25;;;11.50;85.50;;;;;;4940676;28;88123;-69
2021/12/13 06:38:37;;;;;;;14.95;9.60;;;11.50;85.60;;;;;;4940406;28;87974;-69
2021/12/13 06:41:26;;;;;;;14.77;9.27;;;11.50;85.60;;;;;;4963919;28;94197;-69
2021/12/13 06:43:56;;;;;;;16.95;9.73;;;11.50;85.40;;;;;;4964819;28;91904;-72
2021/12/13 06:46:23;;;;;;;15.73;10.18;;;11.50;85.50;;;;;;4945120;28;89731;-72
2021/12/13 06:49:06;;;;;;;14.88;10.07;;;11.50;85.60;;;;;;4939307;28;88468;-72
2021/12/13 06:51:59;;;;;;;15.60;10.35;;;11.50;85.50;;;;;;4939432;28;88502;-69
2021/12/13 06:54:45;;;;;;;16.10;10.77;;;11.50;85.30;;;;;;4942167;28;89446;-70
2021/12/13 06:57:30;;;;;;;17.95;11.13;;;11.50;85.50;;;;;;4939577;28;89130;-69
2021/12/13 07:00:09;;;;;;;16.27;10.60;;;11.50;85.60;;;;;;4939518;28;88966;-70
2021/12/13 07:02:40;;;;;;;21.30;12.65;;;11.50;85.60;;;;;;4939026;28;88471;-69
2021/12/13 07:05:22;;;;;;;20.35;12.80;;;11.50;85.40;;;;;;4937472;28;92218;-69
2021/12/13 07:07:57;;;;;;;23.35;14.13;;;11.50;85.30;;;;;;4939216;28;89118;-69
2021/12/13 07:10:47;;;;;;;21.45;13.57;;;11.50;85.30;;;;;;4937445;28;89957;-69
2021/12/13 07:13:20;;;;;;;21.20;13.82;;;11.50;85.20;;;;;;4944538;28;88865;-70
2021/12/13 07:15:49;;;;;;;20.42;13.23;;;11.50;85.20;;;;;;4938766;28;89761;-70
2021/12/13 07:18:28;;;;;;;25.23;14.10;;;11.50;85.30;;;;;;4937627;28;89270;-70
2021/12/13 07:21:02;;;;;;;21.40;15.05;;;11.50;85.30;;;;;;4938792;28;88811;-70
2021/12/13 07:23:54;;;;;;;20.23;13.38;;;11.50;85.20;;;;;;4939068;28;88942;-70
2021/12/13 07:26:53;;;;;;;24.75;16.58;;;11.50;85.10;;;;;;4953651;28;88745;-69
2021/12/13 07:29:24;;;;;;;28.02;15.60;;;11.50;85.10;;;;;;4950766;28;89258;-69
2021/12/13 07:32:14;;;;;;;26.08;15.32;;;11.50;85.30;;;;;;4938771;28;88827;-70
2021/12/13 07:34:56;;;;;;;26.83;16.13;;;11.50;85.20;;;;;;4938795;28;88515;-69
2021/12/13 07:37:56;;;;;;;25.25;16.58;;;11.50;85.30;;;;;;4939083;28;88789;-69
2021/12/13 07:40:29;;;;;;;28.98;17.92;;;11.50;85.30;;;;;;4938393;28;91946;-69
2021/12/13 07:43:00;;;;;;;27.88;18.27;;;11.40;85.50;;;;;;4938350;28;89071;-69
2021/12/13 07:45:30;;;;;;;31.88;18.80;;;11.50;85.30;;;;;;4938288;28;91189;-69
2021/12/13 07:48:03;;;;;;;29.27;19.27;;;11.40;85.30;;;;;;4936918;28;90503;-69
2021/12/13 07:50:30;;;;;;;28.52;19.25;;;11.50;85.20;;;;;;4938747;28;89357;-69
2021/12/13 07:53:00;;;;;;;30.75;19.20;;;11.40;85.30;;;;;;4938220;28;88852;-69
2021/12/13 07:55:31;;;;;;;32.03;20.10;;;11.50;85.20;;;;;;4953625;28;88494;-69
2021/12/13 07:58:02;;;;;;;36.00;20.23;;;11.50;85.20;;;;;;4938407;28;88679;-72
2021/12/13 08:00:42;;;;;;;32.60;19.35;;;11.50;85.30;;;;;;4938187;28;90344;-72
2021/12/13 08:03:13;;;;;;;34.17;20.25;;;11.50;85.20;;;;;;4937017;28;89798;-72
2021/12/13 08:05:47;;;;;;;37.05;22.58;;;11.50;85.10;;;;;;4938266;28;88390;-73
2021/12/13 08:08:16;;;;;;;;;;;11.50;85.20;;;;;;4938891;28;90172;-73
2021/12/13 08:10:44;;;;;;;31.27;20.48;;;11.40;85.10;;;;;;4939852;28;88028;-73
2021/12/13 08:13:17;;;;;;;38.03;22.48;;;11.40;85.40;;;;;;4938035;28;93936;-70
2021/12/13 08:16:08;;;;;;;35.97;21.40;;;11.40;85.40;;;;;;4937961;28;88937;-70
2021/12/13 08:18:37;;;;;;;37.25;22.08;;;11.50;85.40;;;;;;4937871;28;89180;-70
2021/12/13 08:21:20;;;;;;;36.83;22.98;;;11.50;85.40;;;;;;4938318;28;89368;-70
2021/12/13 08:24:00;;;;;;;36.95;23.30;;;11.50;85.30;;;;;;4938007;28;88987;-70
2021/12/13 08:26:39;;;;;;;37.05;23.02;;;11.50;85.20;;;;;;4938223;28;88422;-70
2021/12/13 08:29:31;;;;;;;32.22;21.85;;;11.50;85.10;;;;;;4937917;28;88658;-70
2021/12/13 08:32:06;;;;;;;34.88;21.73;;;11.60;85.10;;;;;;4938125;28;89272;-70
2021/12/13 08:34:44;;;;;;;35.63;21.55;;;11.60;85.10;;;;;;4937874;28;88955;-70
2021/12/13 08:37:23;;;;;;;34.10;23.20;;;11.60;84.90;;;;;;4941178;28;88484;-70
2021/12/13 08:39:57;;;;;;;37.58;22.38;;;11.60;84.80;;;;;;4941301;28;89587;-70
2021/12/13 08:42:28;;;;;;;34.00;22.00;;;11.60;84.90;;;;;;4940038;28;90604;-70
2021/12/13 08:45:05;;;;;;;37.47;22.50;;;11.60;84.80;;;;;;4940819;28;88525;-70
2021/12/13 08:47:45;;;;;;;35.92;22.15;;;11.70;84.70;;;;;;4941431;28;88456;-70
2021/12/13 08:50:23;;;;;;;35.50;22.42;;;11.70;84.60;;;;;;4941496;28;88437;-70
2021/12/13 08:52:58;;;;;;;35.38;22.13;;;11.60;84.60;;;;;;4939929;28;89284;-70
2021/12/13 08:55:32;;;;;;;31.90;21.35;;;11.70;84.50;;;;;;4941245;28;88807;-70
2021/12/13 08:58:14;;;;;;;30.73;21.27;;;11.70;84.40;;;;;;4941229;28;88417;-73
2021/12/13 09:01:03;;;;;;;30.15;20.80;;;11.70;84.40;;;;;;4941156;28;88357;-73
2021/12/13 09:03:35;;;;;;;29.02;21.88;;;11.70;84.40;;;;;;4941099;28;89367;-73
2021/12/13 09:06:17;;;;;;;33.83;23.13;;;11.80;84.50;;;;;;4940283;28;88906;-73
2021/12/13 09:08:46;;;;;;;30.42;21.10;;;11.80;84.20;;;;;;4940793;28;89303;-73
2021/12/13 09:11:32;;;;;;;31.27;22.40;;;11.80;84.30;;;;;;4939561;28;89306;-73
2021/12/13 09:14:10;;;;;;;31.52;21.88;;;11.80;84.00;;;;;;4940348;28;89624;-73
2021/12/13 09:16:43;;;;;;;31.42;21.65;;;11.80;84.00;;;;;;4940872;28;88845;-73
2021/12/13 09:19:20;;;;;;;29.35;20.55;;;11.80;83.80;;;;;;4940397;28;88872;-73
2021/12/13 09:22:30;;;;;;;32.97;20.85;;;11.80;83.90;;;;;;4940576;28;88726;-73
2021/12/13 09:25:06;;;;;;;34.08;21.75;;;11.90;83.60;;;;;;4940433;28;89281;-73
2021/12/13 09:27:36;;;;;;;29.17;19.73;;;11.80;83.80;;;;;;4940717;28;88838;-73
2021/12/13 09:30:12;;;;;;;28.42;20.50;;;11.80;83.80;;;;;;4955349;28;88797;-73
2021/12/13 09:32:49;;;;;;;29.23;21.13;;;11.80;83.80;;;;;;4955624;28;89498;-73
2021/12/13 09:35:39;;;;;;;27.60;20.58;;;11.90;83.90;;;;;;4940425;28;89230;-73
2021/12/13 09:38:26;;;;;;;30.95;19.90;;;11.90;83.60;;;;;;4940663;28;88866;-73
2021/12/13 09:40:59;;;;;;;33.55;22.77;;;11.90;83.40;;;;;;4939256;28;91027;-73
2021/12/13 09:43:34;;;;;;;30.90;20.83;;;11.90;83.60;;;;;;4940231;28;91145;-73
2021/12/13 09:46:03;;;;;;;25.95;19.98;;;11.90;83.40;;;;;;4940140;28;89150;-73
2021/12/13 09:48:38;;;;;;;31.13;22.90;;;11.90;83.40;;;;;;4939376;28;100717;-73
2021/12/13 09:51:12;;;;;;;30.40;20.50;;;11.90;83.20;;;;;;4940634;28;88507;-73
2021/12/13 09:53:40;;;;;;;;;;;12.00;83.10;;;;;;4955619;28;91206;-73
2021/12/13 09:56:12;;;;;;;27.90;19.25;;;11.90;82.90;;;;;;4956930;28;89059;-73
2021/12/13 09:58:46;;;;;;;25.73;18.42;;;12.00;83.10;;;;;;4939141;28;88719;-73
2021/12/13 10:01:22;;;;;;;26.80;19.42;;;12.00;83.10;;;;;;4940235;28;88498;-73
2021/12/13 10:04:03;;;;;;;28.48;19.88;;;12.10;82.60;;;;;;4940348;28;88529;-73
2021/12/13 10:06:38;;;;;;;24.88;18.95;;;12.10;82.40;;;;;;4939922;28;89249;-73
2021/12/13 10:09:23;;;;;;;25.52;18.30;;;12.20;82.30;;;;;;4938612;28;89918;-70
2021/12/13 10:11:57;;;;;;;27.83;18.60;;;12.20;82.20;;;;;;4940096;28;88390;-70
2021/12/13 10:14:32;;;;;;;25.67;18.13;;;12.20;82.20;;;;;;4938600;28;89808;-70
2021/12/13 10:17:01;;;;;;;25.60;18.50;;;12.30;81.90;;;;;;4939774;28;89354;-70
2021/12/13 10:19:34;;;;;;;24.17;17.25;;;12.30;81.80;;;;;;4938285;28;89641;-70
2021/12/13 10:22:03;;;;;;;26.00;18.45;;;12.30;81.70;;;;;;4939688;28;88488;-73
2021/12/13 10:24:41;;;;;;;24.40;18.58;;;12.30;81.50;;;;;;4939614;28;89414;-73
2021/12/13 10:27:11;;;;;;;22.63;17.27;;;12.40;81.40;;;;;;4939614;28;89406;-73
2021/12/13 10:29:43;;;;;;;25.58;18.02;;;12.40;81.30;;;;;;4939851;28;88623;-73
2021/12/13 10:32:17;;;;;;;27.27;17.25;;;12.50;81.20;;;;;;4954291;28;89445;-73
2021/12/13 10:34:49;;;;;;;23.45;17.05;;;12.50;80.90;;;;;;4939797;28;88450;-73
2021/12/13 10:37:29;;;;;;;22.48;17.40;;;12.50;80.90;;;;;;4939613;28;89311;-73
2021/12/13 10:40:01;;;;;;;21.75;16.50;;;12.60;80.50;;;;;;4939856;28;88888;-72
2021/12/13 10:42:35;;;;;;;22.65;17.27;;;12.60;80.40;;;;;;4939955;28;88475;-72
2021/12/13 10:45:10;;;;;;;21.58;16.55;;;12.60;80.50;;;;;;4939852;28;89324;-72
2021/12/13 10:47:43;;;;;;;23.40;17.63;;;12.60;80.30;;;;;;4939538;28;90421;-72
2021/12/13 10:50:15;;;;;;;20.80;15.02;;;12.60;80.30;;;;;;4939228;28;88848;-72
2021/12/13 10:52:48;;;;;;;24.15;16.08;;;12.60;80.20;;;;;;4939584;28;88498;-72
2021/12/13 10:55:20;;;;;;;24.55;16.65;;;12.60;80.00;;;;;;4939432;28;88842;-72
2021/12/13 10:57:48;;;;;;;20.83;16.33;;;12.60;79.90;;;;;;4939444;28;89213;-72
2021/12/13 11:00:25;;;;;;;27.80;18.15;;;12.60;79.90;;;;;;4937786;28;88885;-72
2021/12/13 11:03:04;;;;;;;23.58;16.92;;;12.60;80.00;;;;;;4938066;28;89382;-72
2021/12/13 11:05:31;;;;;;;22.55;16.10;;;12.60;79.80;;;;;;4939224;28;88645;-73
2021/12/13 11:07:59;;;;;;;20.10;14.85;;;12.60;79.90;;;;;;4939328;28;89143;-72
2021/12/13 11:10:34;;;;;;;21.70;15.75;;;12.60;79.70;;;;;;4953707;28;88820;-73
2021/12/13 11:13:20;;;;;;;20.23;15.18;;;12.70;79.70;;;;;;4937993;28;88408;-73
2021/12/13 11:15:49;;;;;;;22.75;16.85;;;12.70;79.50;;;;;;4939056;28;89385;-72
2021/12/13 11:18:26;;;;;;;21.48;14.93;;;12.80;79.40;;;;;;4938730;28;89115;-72
2021/12/13 11:20:59;;;;;;;21.27;14.15;;;12.90;79.20;;;;;;4938997;28;89226;-73
2021/12/13 11:23:27;;;;;;;22.20;15.02;;;12.90;79.00;;;;;;4937288;28;89512;-72
2021/12/13 11:26:01;;;;;;;19.17;15.30;;;12.90;78.80;;;;;;4938865;28;88750;-70
2021/12/13 11:28:29;;;;;;;18.27;14.00;;;13.00;78.60;;;;;;4938682;28;89076;-73
2021/12/13 11:30:56;;;;;;;20.35;15.05;;;13.00;78.70;;;;;;4937501;28;93604;-70
2021/12/13 11:33:40;;;;;;;20.95;14.25;;;13.00;78.40;;;;;;4953647;28;88491;-70
2021/12/13 11:36:07;;;;;;;19.53;14.43;;;13.10;78.20;;;;;;4937373;28;89700;-70
2021/12/13 11:39:02;;;;;;;21.38;15.48;;;13.00;79.00;;;;;;4937174;28;90457;-70
2021/12/13 11:41:42;;;;;;;23.40;16.55;;;13.10;78.20;;;;;;4938409;28;89237;-70
2021/12/13 11:44:31;;;;;;;18.73;14.63;;;13.10;78.10;;;;;;4937121;28;89502;-73
2021/12/13 11:47:13;;;;;;;19.88;14.48;;;13.20;77.70;;;;;;4938743;28;88544;-73
2021/12/13 11:50:29;;;;;;;19.25;13.70;;;13.20;77.50;;;;;;4938526;28;89251;-73
2021/12/13 11:53:18;;;;;;;20.58;13.35;;;13.30;77.30;;;;;;4942623;28;89850;-70
2021/12/13 11:56:22;;;;;;;17.45;13.23;;;13.20;77.20;;;;;;4938581;28;88476;-70
2021/12/13 11:59:21;;;;;;;19.77;14.98;;;13.20;77.50;;;;;;4938338;28;88706;-70
2021/12/13 12:02:15;;;;;;;22.80;14.15;;;13.20;77.30;;;;;;4938649;28;89314;-69
2021/12/13 12:05:06;;;;;;;18.73;13.97;;;13.20;77.60;;;;;;4938299;28;88718;-70
2021/12/13 12:07:52;;;;;;;19.30;13.55;;;13.20;77.50;;;;;;4936694;28;89427;-70
2021/12/13 12:10:26;;;;;;;20.67;13.88;;;13.20;77.40;;;;;;4937703;28;89460;-69
2021/12/13 12:13:15;;;;;;;;;;;13.20;77.20;;;;;;4937283;28;90368;-70
2021/12/13 12:15:45;;;;;;;18.38;13.43;;;13.20;77.20;;;;;;4940284;28;89526;-70
2021/12/13 12:18:19;;;;;;;20.27;14.48;;;13.10;77.40;;;;;;4938161;28;88616;-70
2021/12/13 12:21:12;;;;;;;19.55;13.93;;;13.20;77.30;;;;;;4937780;28;89655;-70
2021/12/13 12:23:42;;;;;;;17.58;13.68;;;13.20;77.20;;;;;;4938005;28;88531;-70
2021/12/13 12:26:09;;;;;;;20.20;14.68;;;13.20;77.50;;;;;;4953060;28;88874;-70
2021/12/13 12:28:37;;;;;;;15.52;12.48;;;13.20;77.20;;;;;;4937991;28;88502;-69
2021/12/13 12:31:04;;;;;;;19.40;14.40;;;13.30;77.20;;;;;;4938192;28;88888;-70
2021/12/13 12:33:38;;;;;;;17.27;12.27;;;13.30;77.20;;;;;;4937632;28;89323;-70
2021/12/13 12:36:15;;;;;;;;;;;13.20;76.80;;;;;;4938336;28;88860;-70
2021/12/13 12:39:04;;;;;;;17.75;13.95;;;13.10;77.00;;;;;;4939888;28;88472;-70
2021/12/13 12:41:58;;;;;;;21.27;13.80;;;13.20;77.30;;;;;;4936380;28;90007;-70
2021/12/13 12:44:58;;;;;;;18.67;14.05;;;13.20;77.20;;;;;;4937462;28;88439;-72
2021/12/13 12:47:34;;;;;;;21.17;13.95;;;13.10;77.30;;;;;;4937766;28;88689;-73
2021/12/13 12:50:14;;;;;;;20.02;13.63;;;13.10;77.10;;;;;;4937614;28;91467;-73
2021/12/13 12:53:04;;;;;;;18.45;13.85;;;13.10;77.10;;;;;;4920407;28;89707;-73
2021/12/13 12:55:49;;;;;;;20.77;14.57;;;13.20;76.90;;;;;;4937961;28;88941;-72
2021/12/13 12:58:21;;;;;;;17.48;14.15;;;13.10;77.30;;;;;;4936437;28;88974;-72
2021/12/13 13:00:49;;;;;;;18.75;13.73;;;13.10;77.30;;;;;;4937754;28;88521;-70
2021/12/13 13:03:24;;;;;;;19.02;14.38;;;13.10;77.30;;;;;;4937234;28;88823;-70
2021/12/13 13:05:51;;;;;;;18.75;13.68;;;13.20;77.10;;;;;;4937334;28;89399;-69
2021/12/13 13:08:30;;;;;;;19.33;14.02;;;13.20;77.10;;;;;;4936114;28;90219;-70
2021/12/13 13:14:11;;;;;;;18.42;13.43;;;13.20;77.10;;;;;;4957223;28;88711;-70
2021/12/13 13:16:51;;;;;;;18.85;13.52;;;13.20;77.10;;;;;;4952246;28;88461;-70
2021/12/13 13:19:35;;;;;;;16.42;12.63;;;13.30;76.80;;;;;;4937232;28;88855;-69
2021/12/13 13:22:08;;;;;;;;;;;13.30;76.70;;;;;;4937914;28;92582;-69
2021/12/13 13:24:59;;;;;;;19.23;12.82;;;13.20;76.30;;;;;;4942700;28;88693;-69
2021/12/13 13:27:29;;;;;;;19.08;14.13;;;13.30;76.70;;;;;;4940761;28;89203;-70